Klodzko, Poland

5:08 AM CET on December 21, 2014 (GMT +0100)
Dzierżoniów | Change Station
CLOSE
Current Station
Personal Weather Station
Location: Dzierżoniów, WOJEWóDZTWO DOLNOśLąSKIE
Elevation: 876 ft
Nearby Weather Stations

Elev 876 ft 50.74 °N, 16.65 °E | Updated 46 seconds ago

Overcast
Overcast
36.9 °F
Feels Like 37 °F
N
2.5
Wind Variable Wind from SSE
Gusts 2.5 mph

Today
High -- | Low -- °F
--% Chance of Precip.
Yesterday
High -- | Low -- °F
Precip. -- in
7:51 AM 3:51 PM
Waning Crescent, 1% visible
Pressure 30.01 in
Visibility 6.2 miles
Clouds Scattered Clouds 1100 ft
Mostly Cloudy 2000 ft
Windchill 37 °F
Dew Point 30 °F
Humidity 77%
Rainfall 0.04 in
Snow Depth Not available.
UV 0 out of 12
Pollen Not available.
Air Quality Not available.
Flu Activity Not available.
METAR EPWR 210400Z 28016KT 9999 -SHRA SCT011CB BKN020 04/02 Q1016

More Conditions Fewer Conditions

Pressure 30.01 in
Visibility 6.2 miles
Clouds Scattered Clouds 1100 ft
Mostly Cloudy 2000 ft
Windchill 37 °F
Dew Point 30 °F
Humidity 77%
Rainfall 0.04 in
Snow Depth Not available.
UV 0 out of 12
Pollen Not available.
Air Quality Not available.
Flu Activity Not available.
METAR EPWR 210400Z 28016KT 9999 -SHRA SCT011CB BKN020 04/02 Q1016

More Conditions Fewer Conditions

10-Day Weather Forecast

Almanac

Astronomy

Dec. 21, 2014 Rise Set
Actual Time
Civil Twilight
Nautical Twilight
Astronomical Twilight
Moon
Length of Visible Light
Length of Day
Tomorrow will be .
, % of the Moon is Illuminated

Today's Extremes

Country Highs Country Lows

Community

WunderPhotos

Upload Photos

1,779,357 photos uploaded!

WunderBlogs® & News

Nearby

Air Quality

  Air Quality AQ Index Pollutant
Not available.

Snow Depth

Station Depth Elevation

Earthquake Activity

City Distance Mag. Time & Date
Minimum magnitude displayed is 2.5.

Coastal Water Temperatures

Place Temperature

Nearby Weather Stations